Time;durP1;ratioP1;P1;durP2;ratioP2;P2;SDS_P1;SDS_P2;PMS_P1;PMS_P2;Temp;Humidity;BMP_temperature;BMP_pressure;BME280_temperature;BME280_humidity;BME280_pressure;Samples;Min_cycle;Max_cycle;Signal;HPM_P1;HPM_P2
2023/05/19 00:01:36;;;;;;;10.75;6.00;;;9.10;99.90;;;;;;5153922;27;20038;-68
2023/05/19 00:04:04;;;;;;;11.57;5.30;;;9.00;99.90;;;;;;5154071;27;20054;-68
2023/05/19 00:06:31;;;;;;;7.82;5.72;;;9.00;99.90;;;;;;5154195;27;20046;-68
2023/05/19 00:09:08;;;;;;;7.78;5.43;;;9.00;99.90;;;;;;5153969;27;20125;-68
2023/05/19 00:11:35;;;;;;;7.22;5.20;;;9.00;99.90;;;;;;5154461;27;20043;-68
2023/05/19 00:14:03;;;;;;;9.30;5.80;;;8.90;99.90;;;;;;5154014;27;20483;-68
2023/05/19 00:16:29;;;;;;;13.15;6.65;;;8.90;99.90;;;;;;5154016;27;20379;-68
2023/05/19 00:18:59;;;;;;;9.52;5.53;;;8.90;99.90;;;;;;5153869;27;20042;-68
2023/05/19 00:21:26;;;;;;;10.35;5.45;;;8.90;99.90;;;;;;5154304;27;20046;-68
2023/05/19 00:23:51;;;;;;;9.65;5.78;;;8.90;99.90;;;;;;5135791;27;20082;-68
2023/05/19 00:26:17;;;;;;;9.10;5.20;;;8.90;99.90;;;;;;5154046;27;20093;-68
2023/05/19 00:28:43;;;;;;;9.10;5.50;;;8.90;99.90;;;;;;5153575;27;20455;-68
2023/05/19 00:31:09;;;;;;;16.00;6.95;;;8.90;99.90;;;;;;5153704;27;20042;-68
2023/05/19 00:33:34;;;;;;;10.70;5.07;;;8.90;99.90;;;;;;5153870;27;20042;-68
2023/05/19 00:36:04;;;;;;;13.60;5.53;;;8.90;99.90;;;;;;5156020;27;20050;-68
2023/05/19 00:38:31;;;;;;;7.90;5.68;;;8.90;99.90;;;;;;5141012;27;20039;-68
2023/05/19 00:40:58;;;;;;;13.40;5.97;;;8.90;99.90;;;;;;5140100;27;20057;-68
2023/05/19 00:43:24;;;;;;;11.45;5.78;;;8.90;99.90;;;;;;5159528;27;20031;-68
2023/05/19 00:45:50;;;;;;;7.28;6.10;;;8.90;99.90;;;;;;5157619;27;20053;-68
2023/05/19 00:48:16;;;;;;;12.40;5.35;;;8.90;99.90;;;;;;5156363;27;20057;-68
2023/05/19 00:50:42;;;;;;;10.15;5.63;;;8.80;99.90;;;;;;5155696;27;20224;-68
2023/05/19 00:53:08;;;;;;;12.60;6.15;;;8.80;99.90;;;;;;5155527;27;20126;-68
2023/05/19 00:55:36;;;;;;;9.60;5.68;;;8.80;99.90;;;;;;5153991;27;20080;-68
2023/05/19 00:58:04;;;;;;;13.23;5.95;;;8.70;99.90;;;;;;5156391;27;20483;-68
2023/05/19 01:00:30;;;;;;;9.00;6.13;;;8.70;99.90;;;;;;5157190;27;20055;-68
2023/05/19 01:02:56;;;;;;;8.05;5.47;;;8.70;99.90;;;;;;5156853;27;20497;-68
2023/05/19 01:05:22;;;;;;;11.75;6.07;;;8.70;99.90;;;;;;5157130;27;20130;-68
2023/05/19 01:07:52;;;;;;;9.73;6.43;;;8.70;99.90;;;;;;5157484;27;20043;-68
2023/05/19 01:10:18;;;;;;;12.80;5.82;;;8.60;99.90;;;;;;5139075;27;20553;-68
2023/05/19 01:12:45;;;;;;;8.02;5.65;;;8.70;99.90;;;;;;5157089;27;20119;-67
2023/05/19 01:15:11;;;;;;;11.93;5.90;;;8.70;99.90;;;;;;5139225;27;20050;-67
2023/05/19 01:17:48;;;;;;;13.77;7.28;;;8.70;99.90;;;;;;5156878;27;20151;-68
2023/05/19 01:20:17;;;;;;;8.73;4.63;;;8.70;99.90;;;;;;5157118;27;20046;-68
2023/05/19 01:23:09;;;;;;;15.80;7.22;;;8.60;99.90;;;;;;5156739;27;20049;-68
2023/05/19 01:25:57;;;;;;;10.13;5.22;;;8.60;99.90;;;;;;5117179;27;20047;-68
2023/05/19 01:28:43;;;;;;;10.77;5.28;;;8.60;99.90;;;;;;5156602;27;20061;-68
2023/05/19 01:31:10;;;;;;;12.75;7.03;;;8.60;99.90;;;;;;5156463;27;20050;-68
2023/05/19 01:33:38;;;;;;;11.52;6.22;;;8.60;99.90;;;;;;5156596;27;20050;-68
2023/05/19 01:36:07;;;;;;;10.80;5.97;;;8.60;99.90;;;;;;5156380;27;20065;-68
2023/05/19 01:38:35;;;;;;;8.70;5.07;;;8.60;99.90;;;;;;5156443;27;20053;-68
2023/05/19 01:41:03;;;;;;;7.70;4.75;;;8.60;99.90;;;;;;5156793;27;20099;-68
2023/05/19 01:43:29;;;;;;;7.60;5.20;;;8.50;99.90;;;;;;5156625;27;20117;-68
2023/05/19 01:45:57;;;;;;;12.10;4.97;;;8.50;99.90;;;;;;5156361;27;20126;-68
2023/05/19 01:48:23;;;;;;;13.23;7.18;;;8.40;99.90;;;;;;5156189;27;20047;-68
2023/05/19 01:50:50;;;;;;;9.30;5.57;;;8.40;99.90;;;;;;5156562;27;20053;-68
2023/05/19 01:53:16;;;;;;;11.07;5.35;;;8.40;99.90;;;;;;5156742;27;20070;-68
2023/05/19 01:55:48;;;;;;;10.13;5.60;;;8.40;99.90;;;;;;5156386;27;20047;-68
2023/05/19 01:58:21;;;;;;;8.00;4.95;;;8.40;99.90;;;;;;5156118;27;20047;-68
2023/05/19 02:00:52;;;;;;;7.75;4.88;;;8.30;99.90;;;;;;5156289;27;20038;-69
2023/05/19 02:03:49;;;;;;;10.30;5.38;;;8.30;99.90;;;;;;5155984;27;20046;-68
2023/05/19 02:06:40;;;;;;;12.20;5.95;;;8.30;99.90;;;;;;5138270;27;20042;-69
2023/05/19 02:09:22;;;;;;;10.20;5.78;;;8.30;99.90;;;;;;5155359;27;20487;-68
2023/05/19 02:11:54;;;;;;;10.82;6.70;;;8.30;99.90;;;;;;5156045;27;20113;-68
2023/05/19 02:14:27;;;;;;;14.38;5.40;;;8.30;99.90;;;;;;5155794;27;20043;-68
2023/05/19 02:16:54;;;;;;;7.60;5.70;;;8.30;99.90;;;;;;5156079;27;20095;-68
2023/05/19 02:19:26;;;;;;;12.55;5.68;;;8.30;99.90;;;;;;5156078;27;20050;-68
2023/05/19 02:21:52;;;;;;;9.38;6.43;;;8.30;99.90;;;;;;5137401;27;20047;-68
2023/05/19 02:24:19;;;;;;;10.60;4.97;;;8.20;99.90;;;;;;5155432;27;20046;-68
2023/05/19 02:26:45;;;;;;;7.55;4.65;;;8.10;99.90;;;;;;5136548;27;20462;-68
2023/05/19 02:29:11;;;;;;;9.02;5.63;;;8.00;99.90;;;;;;5155441;27;20043;-68
2023/05/19 02:31:37;;;;;;;9.48;6.50;;;8.00;99.90;;;;;;5155875;27;20053;-68
2023/05/19 02:34:02;;;;;;;9.82;5.13;;;8.00;99.90;;;;;;5155828;27;20514;-68
2023/05/19 02:36:33;;;;;;;11.05;5.03;;;8.00;99.90;;;;;;5155436;27;20091;-68
2023/05/19 02:39:00;;;;;;;11.25;5.43;;;8.10;99.90;;;;;;5155363;27;20046;-68
2023/05/19 02:41:27;;;;;;;8.48;6.03;;;8.00;99.90;;;;;;5155279;27;20167;-68
2023/05/19 02:43:52;;;;;;;8.98;5.07;;;8.00;99.90;;;;;;5155287;27;20587;-68
2023/05/19 02:46:18;;;;;;;10.85;4.57;;;8.00;99.90;;;;;;5155211;27;20096;-68
2023/05/19 02:48:44;;;;;;;7.18;4.47;;;8.00;99.90;;;;;;5154908;27;20054;-68
2023/05/19 02:51:10;;;;;;;11.23;5.13;;;8.00;99.90;;;;;;5155050;27;20043;-68
2023/05/19 02:53:35;;;;;;;11.32;5.38;;;8.00;99.90;;;;;;5154938;27;20038;-68
2023/05/19 02:56:01;;;;;;;9.20;5.60;;;7.90;99.90;;;;;;5120404;27;20038;-68
2023/05/19 02:58:27;;;;;;;11.32;6.10;;;7.80;99.90;;;;;;5154804;27;20131;-68
2023/05/19 03:00:53;;;;;;;9.18;4.55;;;7.70;99.90;;;;;;5154829;27;20120;-68
2023/05/19 03:03:19;;;;;;;9.95;5.43;;;7.60;99.90;;;;;;5154735;27;20038;-68
2023/05/19 03:05:46;;;;;;;6.97;4.72;;;7.50;99.90;;;;;;5155335;27;20045;-68
2023/05/19 03:08:11;;;;;;;13.30;6.25;;;7.60;99.90;;;;;;5154634;27;20466;-68
2023/05/19 03:10:37;;;;;;;8.77;5.65;;;7.70;99.90;;;;;;5154713;27;20099;-68
2023/05/19 03:13:03;;;;;;;7.70;5.63;;;7.70;99.90;;;;;;5136246;27;20037;-68
2023/05/19 03:15:29;;;;;;;11.70;6.07;;;7.70;99.90;;;;;;5154726;27;20505;-68
2023/05/19 03:17:55;;;;;;;16.75;7.13;;;7.80;99.90;;;;;;5154534;27;20058;-68
2023/05/19 03:20:21;;;;;;;15.25;7.03;;;7.80;99.90;;;;;;5153723;27;20043;-68
2023/05/19 03:22:46;;;;;;;11.70;7.05;;;7.90;99.90;;;;;;5154860;27;20042;-68
2023/05/19 03:25:12;;;;;;;9.80;6.18;;;7.90;99.90;;;;;;5154297;27;20086;-68
2023/05/19 03:27:38;;;;;;;10.13;7.93;;;7.90;99.90;;;;;;5154730;27;20047;-68
2023/05/19 03:30:04;;;;;;;14.57;7.03;;;7.90;99.90;;;;;;5154769;27;20371;-68
2023/05/19 03:32:31;;;;;;;14.93;6.25;;;7.90;99.90;;;;;;5154024;27;20500;-68
2023/05/19 03:34:57;;;;;;;11.93;5.72;;;7.90;99.90;;;;;;5136540;27;20480;-68
2023/05/19 03:37:23;;;;;;;12.30;6.00;;;7.90;99.90;;;;;;5154424;27;20062;-68
2023/05/19 03:39:49;;;;;;;7.63;5.63;;;7.90;99.90;;;;;;5154301;27;20056;-68
2023/05/19 03:42:14;;;;;;;8.88;5.90;;;7.90;99.90;;;;;;5154256;27;20039;-68
2023/05/19 03:44:40;;;;;;;12.02;6.20;;;7.80;99.90;;;;;;5136541;27;20103;-68
2023/05/19 03:47:06;;;;;;;10.00;6.80;;;7.90;99.90;;;;;;5154263;27;20099;-68
2023/05/19 03:49:32;;;;;;;11.85;6.10;;;7.90;99.90;;;;;;5135840;27;20137;-68
2023/05/19 03:51:57;;;;;;;8.85;6.60;;;7.80;99.90;;;;;;5136256;27;20444;-68
2023/05/19 03:54:23;;;;;;;9.13;5.10;;;7.60;99.90;;;;;;5154479;27;20121;-68
2023/05/19 03:56:49;;;;;;;11.10;5.65;;;7.70;99.90;;;;;;5154086;27;20498;-68
2023/05/19 03:59:15;;;;;;;10.45;5.60;;;7.60;99.90;;;;;;5154056;27;20047;-68
2023/05/19 04:01:40;;;;;;;10.93;5.82;;;7.70;99.90;;;;;;5154013;27;20450;-68
2023/05/19 04:04:06;;;;;;;9.18;5.93;;;7.70;99.90;;;;;;5154094;27;20045;-68
2023/05/19 04:06:32;;;;;;;10.43;5.55;;;7.60;99.90;;;;;;5154055;27;20073;-68
2023/05/19 04:08:58;;;;;;;8.40;6.20;;;7.60;99.90;;;;;;5154041;27;20053;-68
2023/05/19 04:11:24;;;;;;;7.35;5.72;;;7.70;99.90;;;;;;5135587;27;20443;-68
2023/05/19 04:13:50;;;;;;;10.98;6.43;;;7.70;99.90;;;;;;5154549;27;20204;-68
2023/05/19 04:16:15;;;;;;;11.38;6.07;;;7.80;99.90;;;;;;5154354;27;20470;-68
2023/05/19 04:18:44;;;;;;;12.63;6.60;;;7.90;99.90;;;;;;5153936;27;20138;-68
2023/05/19 04:21:09;;;;;;;9.45;6.22;;;8.00;99.90;;;;;;5154266;27;20050;-68
2023/05/19 04:23:35;;;;;;;11.50;7.40;;;8.00;99.90;;;;;;5153849;27;20039;-68
2023/05/19 04:26:02;;;;;;;11.48;6.85;;;8.10;99.90;;;;;;5153639;27;20054;-68
2023/05/19 04:28:28;;;;;;;11.40;7.00;;;8.20;99.90;;;;;;5153827;27;20486;-68
2023/05/19 04:30:57;;;;;;;14.48;6.53;;;8.20;99.90;;;;;;5154547;27;20051;-68
2023/05/19 04:33:23;;;;;;;11.32;5.70;;;8.20;99.90;;;;;;5157871;27;20051;-68
2023/05/19 04:35:49;;;;;;;13.38;8.10;;;8.30;99.90;;;;;;5157823;27;20114;-68
2023/05/19 04:38:17;;;;;;;16.08;8.43;;;8.30;99.90;;;;;;5157663;27;20134;-68
2023/05/19 04:40:43;;;;;;;14.40;8.57;;;8.40;99.90;;;;;;5157741;27;20502;-68
2023/05/19 04:43:10;;;;;;;13.70;7.75;;;8.50;99.90;;;;;;5139194;27;20043;-68
2023/05/19 04:45:36;;;;;;;10.30;6.95;;;8.50;99.90;;;;;;5139374;27;20050;-68
2023/05/19 04:48:02;;;;;;;13.18;7.93;;;8.60;99.90;;;;;;5158795;27;20054;-69
2023/05/19 04:50:29;;;;;;;11.07;7.28;;;8.60;99.90;;;;;;5125389;27;20051;-68
2023/05/19 04:52:58;;;;;;;15.80;7.13;;;8.60;99.90;;;;;;5160981;27;20056;-67
2023/05/19 04:55:23;;;;;;;12.63;7.53;;;8.70;99.90;;;;;;5127319;27;20544;-69
2023/05/19 04:57:49;;;;;;;12.38;7.25;;;8.80;99.90;;;;;;5141179;27;20455;-69
2023/05/19 05:00:17;;;;;;;10.07;8.45;;;8.90;99.90;;;;;;5157630;27;20061;-69
2023/05/19 05:02:43;;;;;;;11.85;7.20;;;8.90;99.90;;;;;;5157440;27;20039;-68
2023/05/19 05:05:09;;;;;;;16.73;8.40;;;9.00;99.90;;;;;;5138589;27;20047;-69
2023/05/19 05:07:35;;;;;;;10.57;7.05;;;9.10;99.90;;;;;;5157522;27;20042;-68
2023/05/19 05:10:00;;;;;;;11.95;8.13;;;9.10;99.90;;;;;;5157121;27;20051;-69
2023/05/19 05:12:26;;;;;;;11.63;7.25;;;9.20;99.90;;;;;;5138491;27;20447;-69
2023/05/19 05:14:52;;;;;;;10.43;6.88;;;9.30;99.90;;;;;;5157577;27;20046;-69
2023/05/19 05:17:19;;;;;;;13.25;6.63;;;9.30;99.90;;;;;;5138834;27;20039;-69
2023/05/19 05:19:45;;;;;;;13.77;7.38;;;9.40;99.90;;;;;;5156894;27;20051;-69
2023/05/19 05:22:11;;;;;;;14.45;8.13;;;9.50;99.90;;;;;;5156903;27;20363;-69
2023/05/19 05:24:37;;;;;;;13.48;7.53;;;9.60;99.90;;;;;;5157025;27;20570;-69
2023/05/19 05:27:03;;;;;;;11.70;7.70;;;9.70;99.90;;;;;;5156288;27;20054;-69
2023/05/19 05:29:29;;;;;;;15.55;7.55;;;9.70;99.90;;;;;;5156744;27;20057;-69
2023/05/19 05:31:54;;;;;;;16.80;7.68;;;9.80;99.90;;;;;;5156503;27;20473;-69
2023/05/19 05:34:20;;;;;;;8.93;6.53;;;9.90;99.90;;;;;;5156655;27;20460;-68
2023/05/19 05:36:46;;;;;;;11.45;7.35;;;10.10;99.90;;;;;;5138697;27;20057;-69
2023/05/19 05:39:11;;;;;;;11.77;7.82;;;10.10;99.90;;;;;;5156414;27;20046;-68
2023/05/19 05:41:37;;;;;;;12.70;7.93;;;10.30;99.90;;;;;;5137923;27;20534;-68
2023/05/19 05:44:03;;;;;;;21.98;8.85;;;10.30;99.90;;;;;;5155332;27;20047;-69
2023/05/19 05:46:29;;;;;;;14.30;7.75;;;10.40;99.90;;;;;;5157460;27;20117;-69
2023/05/19 05:48:55;;;;;;;14.98;8.15;;;10.50;99.90;;;;;;5156878;27;20387;-69
2023/05/19 05:51:21;;;;;;;9.75;7.20;;;10.50;99.90;;;;;;5156658;27;20050;-69
2023/05/19 05:53:52;;;;;;;18.35;8.77;;;10.70;99.90;;;;;;5156055;27;20082;-68
2023/05/19 05:56:18;;;;;;;16.42;8.27;;;10.80;99.90;;;;;;5156118;27;20043;-68
2023/05/19 05:58:44;;;;;;;17.08;8.02;;;10.80;99.90;;;;;;5155991;27;20050;-68
2023/05/19 06:01:11;;;;;;;13.20;8.38;;;10.90;99.90;;;;;;5129054;27;20076;-68
2023/05/19 06:03:43;;;;;;;13.13;7.88;;;11.00;99.90;;;;;;5160686;27;20567;-68
2023/05/19 06:06:10;;;;;;;11.82;6.88;;;11.10;99.90;;;;;;5140174;27;20050;-69
2023/05/19 06:08:36;;;;;;;15.35;7.22;;;11.20;99.90;;;;;;5155559;27;20053;-68
2023/05/19 06:11:07;;;;;;;16.20;8.18;;;11.40;99.90;;;;;;5156044;27;20125;-69
2023/05/19 06:13:37;;;;;;;13.68;8.30;;;11.50;99.90;;;;;;5156168;27;20066;-68
2023/05/19 06:16:04;;;;;;;12.75;7.80;;;11.60;99.90;;;;;;5156207;27;20440;-69
2023/05/19 06:18:29;;;;;;;15.88;8.35;;;11.70;99.90;;;;;;5137276;27;20080;-69
2023/05/19 06:20:55;;;;;;;14.38;8.48;;;11.70;99.90;;;;;;5156128;27;20043;-69
2023/05/19 06:23:21;;;;;;;15.68;7.43;;;11.80;99.90;;;;;;5155633;27;20487;-66
2023/05/19 06:25:46;;;;;;;14.55;8.13;;;12.00;99.90;;;;;;5155514;27;20039;-69
2023/05/19 06:28:12;;;;;;;10.27;6.82;;;12.10;99.90;;;;;;5136474;27;20054;-69
2023/05/19 06:30:38;;;;;;;9.18;6.55;;;12.50;99.90;;;;;;5155653;27;20427;-66
2023/05/19 06:33:04;;;;;;;10.55;4.82;;;13.70;99.90;;;;;;5155398;27;20121;-69
2023/05/19 06:35:30;;;;;;;8.48;4.53;;;14.90;99.90;;;;;;5155033;27;20081;-68
2023/05/19 06:37:56;;;;;;;7.40;4.13;;;16.10;99.90;;;;;;5155340;27;20050;-67
2023/05/19 06:40:22;;;;;;;6.07;4.15;;;17.10;99.90;;;;;;5154977;27;20042;-67
2023/05/19 06:42:48;;;;;;;8.52;4.18;;;18.10;99.90;;;;;;5155900;27;20038;-67
2023/05/19 06:45:14;;;;;;;7.35;3.67;;;19.00;99.90;;;;;;5155224;27;20066;-67
2023/05/19 06:47:41;;;;;;;5.75;3.40;;;19.70;99.90;;;;;;5155182;27;20046;-68
2023/05/19 06:50:08;;;;;;;6.32;3.33;;;20.10;99.70;;;;;;5155156;27;20050;-67
2023/05/19 06:52:34;;;;;;;3.67;3.05;;;20.40;97.50;;;;;;5155076;27;20043;-68
2023/05/19 06:55:00;;;;;;;4.13;3.45;;;20.90;97.40;;;;;;5154881;27;20091;-67
2023/05/19 06:57:25;;;;;;;6.32;2.95;;;20.90;96.20;;;;;;5137240;27;20054;-67
2023/05/19 06:59:51;;;;;;;6.57;3.50;;;20.90;94.30;;;;;;5137061;27;20095;-68
2023/05/19 07:02:17;;;;;;;8.23;4.05;;;20.90;93.70;;;;;;5136014;27;20527;-67
2023/05/19 07:04:43;;;;;;;3.53;2.58;;;21.10;93.40;;;;;;5154536;27;20074;-67
2023/05/19 07:07:08;;;;;;;5.38;3.08;;;21.20;91.60;;;;;;5137037;27;20054;-67
2023/05/19 07:09:34;;;;;;;4.93;3.53;;;21.40;93.30;;;;;;5155138;27;20137;-68
2023/05/19 07:12:00;;;;;;;7.65;3.80;;;21.60;92.60;;;;;;5154705;27;20111;-67
2023/05/19 07:14:26;;;;;;;7.82;3.55;;;21.70;92.00;;;;;;5154349;27;20068;-67
2023/05/19 07:16:52;;;;;;;6.80;3.00;;;22.20;91.70;;;;;;5154547;27;20043;-67
2023/05/19 07:19:18;;;;;;;4.90;3.10;;;22.50;90.90;;;;;;5154605;27;20078;-68
2023/05/19 07:21:45;;;;;;;6.10;3.45;;;22.40;90.40;;;;;;5154117;27;20129;-67
2023/05/19 07:24:12;;;;;;;9.70;3.47;;;22.40;90.40;;;;;;5154888;27;20106;-68
2023/05/19 07:26:38;;;;;;;4.22;2.90;;;22.30;89.90;;;;;;5154047;27;20445;-67
2023/05/19 07:29:04;;;;;;;10.13;2.72;;;22.30;89.10;;;;;;5135976;27;20415;-67
2023/05/19 07:31:30;;;;;;;8.80;3.15;;;22.10;89.30;;;;;;5154101;27;20039;-68
2023/05/19 07:33:56;;;;;;;4.57;3.53;;;22.30;88.70;;;;;;5154401;27;20071;-68
2023/05/19 07:36:22;;;;;;;4.72;3.47;;;22.50;87.60;;;;;;5154178;27;20118;-68
2023/05/19 07:38:48;;;;;;;5.68;3.42;;;22.50;87.10;;;;;;5154985;27;20459;-68
2023/05/19 07:41:13;;;;;;;9.20;3.35;;;22.50;87.50;;;;;;5154476;27;20046;-67
2023/05/19 07:43:39;;;;;;;6.80;3.58;;;22.70;86.20;;;;;;5154054;27;20474;-68
2023/05/19 07:46:05;;;;;;;6.35;3.00;;;22.60;85.60;;;;;;5136045;27;20042;-68
2023/05/19 07:48:31;;;;;;;7.55;3.78;;;23.30;85.40;;;;;;5154242;27;20099;-68
2023/05/19 07:50:57;;;;;;;5.53;3.08;;;23.10;82.70;;;;;;5154565;27;20480;-68
2023/05/19 07:53:22;;;;;;;6.45;2.83;;;23.30;83.10;;;;;;5154554;27;20122;-68
2023/05/19 07:55:49;;;;;;;8.07;2.88;;;23.60;81.80;;;;;;5154154;27;20479;-68
2023/05/19 07:58:15;;;;;;;5.15;2.65;;;23.00;79.60;;;;;;5154258;27;20530;-69
2023/05/19 08:00:42;;;;;;;6.75;3.78;;;23.20;79.80;;;;;;5154230;27;20459;-68
2023/05/19 08:03:08;;;;;;;5.30;2.75;;;22.70;80.20;;;;;;5154083;27;20157;-68
2023/05/19 08:05:34;;;;;;;5.47;3.50;;;22.90;81.50;;;;;;5154823;27;20061;-68
2023/05/19 08:08:01;;;;;;;4.90;3.00;;;23.30;79.70;;;;;;5158478;27;20129;-68
2023/05/19 08:10:27;;;;;;;4.25;2.70;;;23.30;79.00;;;;;;5139847;27;20046;-68
2023/05/19 08:12:53;;;;;;;4.93;2.50;;;23.60;77.20;;;;;;5140174;27;20038;-68
2023/05/19 08:15:19;;;;;;;8.38;2.60;;;22.70;77.70;;;;;;5158318;27;20121;-68
2023/05/19 08:17:45;;;;;;;4.63;2.50;;;22.20;76.90;;;;;;5158546;27;20103;-68
2023/05/19 08:20:11;;;;;;;3.03;2.20;;;22.30;75.90;;;;;;5158452;27;20050;-67
2023/05/19 08:22:37;;;;;;;5.43;2.65;;;22.30;75.80;;;;;;5158401;27;20119;-69
2023/05/19 08:25:04;;;;;;;4.72;3.05;;;22.60;75.90;;;;;;5122243;27;20482;-70
2023/05/19 08:27:30;;;;;;;5.45;2.35;;;22.60;75.50;;;;;;5158471;27;20098;-66
2023/05/19 08:29:56;;;;;;;5.07;2.55;;;22.70;73.20;;;;;;5157821;27;20047;-67
2023/05/19 08:32:22;;;;;;;5.35;3.13;;;23.00;73.50;;;;;;5157614;27;20046;-68
2023/05/19 08:34:48;;;;;;;6.13;2.40;;;23.10;73.50;;;;;;5158405;27;20054;-68
2023/05/19 08:37:14;;;;;;;2.80;2.30;;;22.80;73.00;;;;;;5158055;27;20474;-68
2023/05/19 08:39:39;;;;;;;6.65;3.47;;;22.70;73.40;;;;;;5157617;27;20046;-67
2023/05/19 08:42:08;;;;;;;3.60;2.33;;;22.90;71.80;;;;;;5158348;27;20451;-70
2023/05/19 08:44:38;;;;;;;4.10;2.20;;;22.80;72.40;;;;;;5163967;27;20046;-68
2023/05/19 08:47:06;;;;;;;3.95;2.53;;;22.90;71.50;;;;;;5165252;27;20129;-67
2023/05/19 08:49:40;;;;;;;4.70;2.20;;;23.30;72.50;;;;;;5164175;27;20082;-68
2023/05/19 08:52:24;;;;;;;3.90;2.35;;;22.80;71.00;;;;;;5143192;27;20442;-69
2023/05/19 08:54:59;;;;;;;3.45;2.17;;;22.90;69.40;;;;;;5158356;27;20055;-68
2023/05/19 08:57:26;;;;;;;3.97;1.98;;;22.90;70.00;;;;;;5157252;27;20448;-70
2023/05/19 08:59:54;;;;;;;2.38;2.05;;;22.50;69.00;;;;;;5138678;27;20047;-69
2023/05/19 09:02:21;;;;;;;3.50;2.20;;;22.30;68.20;;;;;;5157348;27;20103;-67
2023/05/19 09:04:47;;;;;;;3.53;2.08;;;22.30;68.60;;;;;;5157480;27;20043;-66
2023/05/19 09:07:17;;;;;;;3.08;2.05;;;22.30;68.10;;;;;;5156811;27;20118;-70
2023/05/19 09:09:43;;;;;;;3.47;1.92;;;22.60;66.50;;;;;;5157543;27;20073;-68
2023/05/19 09:12:13;;;;;;;7.05;3.13;;;22.60;66.20;;;;;;5138377;27;20049;-68
2023/05/19 09:14:39;;;;;;;4.07;2.72;;;22.60;65.60;;;;;;5157074;27;20042;-68
2023/05/19 09:17:05;;;;;;;2.30;2.10;;;22.70;68.30;;;;;;5156179;27;20046;-70
2023/05/19 09:19:31;;;;;;;5.40;2.30;;;22.80;67.50;;;;;;5156135;27;20473;-68
2023/05/19 09:22:03;;;;;;;2.67;2.47;;;22.90;67.20;;;;;;5138487;27;20035;-68
2023/05/19 09:24:29;;;;;;;5.25;2.20;;;22.90;66.50;;;;;;5157331;27;20074;-68
2023/05/19 09:26:56;;;;;;;5.45;2.50;;;22.10;67.20;;;;;;5156874;27;20047;-69
2023/05/19 09:29:22;;;;;;;4.47;2.40;;;21.40;67.00;;;;;;5156661;27;20501;-68
2023/05/19 09:31:49;;;;;;;5.10;2.70;;;21.60;68.60;;;;;;5156042;27;20129;-68
2023/05/19 09:34:15;;;;;;;2.97;2.22;;;21.70;69.00;;;;;;5156644;27;20081;-68
2023/05/19 09:36:41;;;;;;;3.53;2.80;;;22.10;68.60;;;;;;5156527;27;20042;-68
2023/05/19 09:39:15;;;;;;;8.38;2.70;;;22.00;68.00;;;;;;5156567;27;20082;-68
2023/05/19 09:41:41;;;;;;;4.13;2.40;;;22.40;64.90;;;;;;5138750;27;20403;-68
2023/05/19 09:44:32;;;;;;;9.15;2.80;;;22.80;66.90;;;;;;5156439;27;20130;-69
2023/05/19 09:46:58;;;;;;;3.58;2.20;;;22.60;65.90;;;;;;5156696;27;20042;-69
2023/05/19 09:49:28;;;;;;;4.43;2.50;;;22.70;67.00;;;;;;5156214;27;20542;-69
2023/05/19 09:51:54;;;;;;;5.88;2.70;;;22.50;67.00;;;;;;5137670;27;20042;-68
2023/05/19 09:54:22;;;;;;;3.70;2.33;;;22.60;66.50;;;;;;5156034;27;20043;-69
2023/05/19 09:57:02;;;;;;;3.65;2.35;;;22.40;66.30;;;;;;5156476;27;20042;-69
2023/05/19 09:59:29;;;;;;;5.45;2.67;;;22.40;64.20;;;;;;5156303;27;20042;-69
2023/05/19 10:01:56;;;;;;;6.97;2.55;;;22.20;67.40;;;;;;5137342;27;20095;-69
2023/05/19 10:04:23;;;;;;;4.57;2.83;;;21.90;66.90;;;;;;5156540;27;20054;-70
2023/05/19 10:06:52;;;;;;;3.65;2.78;;;22.00;67.50;;;;;;5156173;27;20046;-69
2023/05/19 10:09:25;;;;;;;4.70;2.13;;;22.00;66.50;;;;;;5155853;27;20122;-69
2023/05/19 10:11:52;;;;;;;5.35;2.50;;;22.10;66.90;;;;;;5155820;27;20058;-69
2023/05/19 10:14:28;;;;;;;2.85;2.30;;;22.20;67.50;;;;;;5155562;27;20050;-68
2023/05/19 10:16:58;;;;;;;3.70;2.88;;;22.50;66.10;;;;;;5156094;27;20050;-69
2023/05/19 10:19:26;;;;;;;4.95;2.67;;;22.60;66.60;;;;;;5156072;27;20043;-69
2023/05/19 10:21:52;;;;;;;8.20;2.65;;;22.60;65.00;;;;;;5155562;27;20042;-69
2023/05/19 10:24:18;;;;;;;4.03;3.00;;;22.80;67.20;;;;;;5155807;27;20078;-69
2023/05/19 10:26:53;;;;;;;6.30;3.35;;;23.00;66.50;;;;;;5155862;27;20081;-69
2023/05/19 10:29:27;;;;;;;4.55;2.60;;;23.00;66.40;;;;;;5155783;27;20116;-68
2023/05/19 10:31:57;;;;;;;5.00;2.67;;;23.30;65.70;;;;;;5155749;27;20138;-69
2023/05/19 10:34:32;;;;;;;4.18;2.83;;;22.90;67.00;;;;;;5155621;27;20117;-68
2023/05/19 10:37:24;;;;;;;3.33;2.80;;;22.60;66.50;;;;;;5137039;27;20497;-69
2023/05/19 10:39:51;;;;;;;4.97;2.90;;;22.70;64.60;;;;;;5155338;27;20043;-69
2023/05/19 10:42:34;;;;;;;4.75;2.45;;;22.90;67.30;;;;;;5155772;27;20338;-69
2023/05/19 10:45:15;;;;;;;5.60;3.13;;;23.20;66.20;;;;;;5155108;27;20042;-69
2023/05/19 10:47:41;;;;;;;3.33;2.67;;;23.50;65.60;;;;;;5154891;27;20539;-69
2023/05/19 10:50:07;;;;;;;4.68;2.55;;;23.20;67.00;;;;;;5154932;27;20129;-69
2023/05/19 10:52:37;;;;;;;6.10;3.13;;;22.40;67.30;;;;;;5155001;27;20085;-69
2023/05/19 10:55:03;;;;;;;6.13;2.83;;;22.50;67.30;;;;;;5155500;27;20067;-69
2023/05/19 10:57:32;;;;;;;7.43;3.03;;;22.20;68.00;;;;;;5154958;27;20043;-69
2023/05/19 11:00:10;;;;;;;6.78;3.22;;;22.10;68.10;;;;;;5155098;27;20061;-69
2023/05/19 11:02:41;;;;;;;4.85;3.13;;;21.30;66.20;;;;;;5155119;27;20041;-69
2023/05/19 11:05:13;;;;;;;6.18;2.80;;;21.20;67.10;;;;;;5154725;27;20096;-69
2023/05/19 11:07:43;;;;;;;4.35;3.30;;;20.80;68.30;;;;;;5155266;27;20046;-69
2023/05/19 11:10:10;;;;;;;4.18;2.67;;;20.40;68.70;;;;;;5155396;27;20058;-69
2023/05/19 11:12:41;;;;;;;3.85;2.95;;;20.40;68.40;;;;;;5136398;27;20447;-67
2023/05/19 11:15:11;;;;;;;5.28;2.83;;;20.50;70.20;;;;;;5154554;27;20129;-67
2023/05/19 11:17:40;;;;;;;8.38;3.28;;;20.60;69.50;;;;;;5154816;27;20061;-67
2023/05/19 11:20:10;;;;;;;4.40;3.78;;;20.60;68.70;;;;;;5154937;27;20424;-66
2023/05/19 11:22:35;;;;;;;3.40;3.10;;;20.70;68.90;;;;;;5154630;27;20046;-67
2023/05/19 11:25:02;;;;;;;9.00;3.38;;;20.90;69.10;;;;;;5154616;27;20582;-66
2023/05/19 11:27:33;;;;;;;6.25;3.22;;;20.80;69.10;;;;;;5135974;27;20179;-66
2023/05/19 11:30:05;;;;;;;6.30;3.65;;;20.60;69.10;;;;;;5136373;27;20118;-66
2023/05/19 11:32:33;;;;;;;5.75;3.35;;;20.50;69.00;;;;;;5154348;27;20045;-68
2023/05/19 11:34:59;;;;;;;4.30;3.28;;;20.40;68.30;;;;;;5153922;27;20522;-66
2023/05/19 11:37:27;;;;;;;8.60;4.20;;;20.50;68.50;;;;;;5154283;27;20129;-66
2023/05/19 11:39:53;;;;;;;4.22;3.10;;;20.60;68.00;;;;;;5154109;27;20559;-66
2023/05/19 11:42:19;;;;;;;5.80;3.80;;;20.70;68.50;;;;;;5153692;27;20102;-68
2023/05/19 11:44:45;;;;;;;7.93;3.72;;;20.80;68.20;;;;;;5154414;27;20082;-67
2023/05/19 11:47:15;;;;;;;8.98;3.75;;;20.70;69.00;;;;;;5154289;27;20053;-67
2023/05/19 11:49:46;;;;;;;5.90;3.65;;;20.90;70.10;;;;;;5154667;27;20117;-67
2023/05/19 11:52:13;;;;;;;6.88;3.42;;;20.70;70.00;;;;;;5135687;27;20038;-68
2023/05/19 11:54:40;;;;;;;7.38;4.15;;;20.50;71.10;;;;;;5154494;27;20046;-67
2023/05/19 11:57:08;;;;;;;8.93;4.68;;;20.50;70.40;;;;;;5153783;27;20046;-66
2023/05/19 11:59:36;;;;;;;8.45;3.92;;;20.30;70.70;;;;;;5154006;27;20050;-67
2023/05/19 12:02:26;;;;;;;4.00;3.22;;;20.50;70.10;;;;;;5135381;27;20089;-69
2023/05/19 12:04:55;;;;;;;8.55;3.80;;;20.50;71.90;;;;;;5136587;27;20085;-70
2023/05/19 12:07:24;;;;;;;4.97;3.63;;;20.20;71.60;;;;;;5136182;27;20347;-70
2023/05/19 12:09:51;;;;;;;5.65;3.78;;;20.10;71.60;;;;;;5154096;27;20114;-69
2023/05/19 12:12:19;;;;;;;6.43;3.33;;;20.00;71.40;;;;;;5153913;27;20481;-70
2023/05/19 12:14:49;;;;;;;9.82;3.40;;;20.20;71.00;;;;;;5154688;27;20054;-68
2023/05/19 12:17:18;;;;;;;7.22;3.70;;;20.40;71.80;;;;;;5135634;27;20150;-69
2023/05/19 12:19:46;;;;;;;4.85;4.03;;;20.20;72.70;;;;;;5153814;27;20042;-70
2023/05/19 12:22:12;;;;;;;6.82;4.40;;;20.10;72.70;;;;;;5135439;27;20108;-70
2023/05/19 12:24:39;;;;;;;7.53;3.60;;;19.90;72.90;;;;;;5153939;27;20060;-69
2023/05/19 12:27:27;;;;;;;7.82;3.55;;;19.90;72.90;;;;;;5154079;27;20074;-71
2023/05/19 12:29:58;;;;;;;6.88;3.72;;;20.10;72.30;;;;;;5153976;27;20103;-70
2023/05/19 12:32:26;;;;;;;6.38;3.70;;;20.10;73.30;;;;;;5153931;27;20079;-71
2023/05/19 12:34:56;;;;;;;6.10;3.42;;;20.00;73.80;;;;;;5135682;27;20103;-70
2023/05/19 12:37:25;;;;;;;6.10;3.72;;;20.20;75.60;;;;;;5153848;27;20111;-70
2023/05/19 12:39:50;;;;;;;5.10;3.80;;;19.90;74.30;;;;;;5153672;27;20121;-68
2023/05/19 12:42:16;;;;;;;6.88;3.95;;;20.00;75.60;;;;;;5153838;27;20081;-70
2023/05/19 12:44:45;;;;;;;6.63;3.90;;;19.90;75.10;;;;;;5153694;27;20050;-70
2023/05/19 12:47:12;;;;;;;4.13;3.15;;;20.20;74.40;;;;;;5153524;27;20051;-70
2023/05/19 12:49:56;;;;;;;7.22;3.38;;;20.30;74.30;;;;;;5135464;27;20053;-70
2023/05/19 12:52:22;;;;;;;7.85;3.40;;;20.40;74.60;;;;;;5137138;27;20051;-70